sensor_id;sensor_type;location;lat;lon;timestamp;temperature;humidity
58983;DHT22;44771;49.982;8.560;2023-10-09T00:02:12;11.00;99.90
58983;DHT22;44771;49.982;8.560;2023-10-09T00:07:15;11.00;99.90
58983;DHT22;44771;49.982;8.560;2023-10-09T00:12:19;10.90;99.90
58983;DHT22;44771;49.982;8.560;2023-10-09T00:17:21;10.90;99.90
58983;DHT22;44771;49.982;8.560;2023-10-09T00:22:25;10.90;99.90
58983;DHT22;44771;49.982;8.560;2023-10-09T00:27:27;10.80;99.90
58983;DHT22;44771;49.982;8.560;2023-10-09T00:32:29;10.90;99.90
58983;DHT22;44771;49.982;8.560;2023-10-09T00:37:32;10.80;99.90
58983;DHT22;44771;49.982;8.560;2023-10-09T00:42:33;11.00;99.90
58983;DHT22;44771;49.982;8.560;2023-10-09T00:47:35;10.90;99.90
58983;DHT22;44771;49.982;8.560;2023-10-09T00:52:39;10.90;99.90
58983;DHT22;44771;49.982;8.560;2023-10-09T00:57:44;10.90;99.90
58983;DHT22;44771;49.982;8.560;2023-10-09T01:02:46;11.00;99.90
58983;DHT22;44771;49.982;8.560;2023-10-09T01:07:53;11.10;99.90
58983;DHT22;44771;49.982;8.560;2023-10-09T01:12:55;11.30;99.90
58983;DHT22;44771;49.982;8.560;2023-10-09T01:17:57;11.30;99.90
58983;DHT22;44771;49.982;8.560;2023-10-09T01:23:02;11.30;99.90
58983;DHT22;44771;49.982;8.560;2023-10-09T01:28:04;11.20;99.90
58983;DHT22;44771;49.982;8.560;2023-10-09T01:33:06;11.10;99.90
58983;DHT22;44771;49.982;8.560;2023-10-09T01:38:10;11.00;99.90
58983;DHT22;44771;49.982;8.560;2023-10-09T01:43:11;11.00;99.90
58983;DHT22;44771;49.982;8.560;2023-10-09T01:48:13;11.00;99.90
58983;DHT22;44771;49.982;8.560;2023-10-09T01:53:16;11.20;99.90
58983;DHT22;44771;49.982;8.560;2023-10-09T01:58:18;11.40;99.90
58983;DHT22;44771;49.982;8.560;2023-10-09T02:03:20;11.40;99.90
58983;DHT22;44771;49.982;8.560;2023-10-09T02:08:23;11.30;99.90
58983;DHT22;44771;49.982;8.560;2023-10-09T02:13:25;11.20;99.90
58983;DHT22;44771;49.982;8.560;2023-10-09T02:18:27;11.10;99.90
58983;DHT22;44771;49.982;8.560;2023-10-09T02:23:31;11.00;99.90
58983;DHT22;44771;49.982;8.560;2023-10-09T02:28:33;10.90;99.90
58983;DHT22;44771;49.982;8.560;2023-10-09T02:33:35;10.90;99.90
58983;DHT22;44771;49.982;8.560;2023-10-09T02:38:38;10.90;99.90
58983;DHT22;44771;49.982;8.560;2023-10-09T02:43:40;11.10;99.90
58983;DHT22;44771;49.982;8.560;2023-10-09T02:48:44;10.90;99.90
58983;DHT22;44771;49.982;8.560;2023-10-09T02:53:50;10.80;99.90
58983;DHT22;44771;49.982;8.560;2023-10-09T02:58:52;10.80;99.90
58983;DHT22;44771;49.982;8.560;2023-10-09T03:03:54;10.80;99.90
58983;DHT22;44771;49.982;8.560;2023-10-09T03:08:57;10.70;99.90
58983;DHT22;44771;49.982;8.560;2023-10-09T03:13:59;10.60;99.90
58983;DHT22;44771;49.982;8.560;2023-10-09T03:19:01;10.60;99.90
58983;DHT22;44771;49.982;8.560;2023-10-09T03:24:04;10.60;99.90
58983;DHT22;44771;49.982;8.560;2023-10-09T03:29:06;10.60;99.90
58983;DHT22;44771;49.982;8.560;2023-10-09T03:34:08;10.60;99.90
58983;DHT22;44771;49.982;8.560;2023-10-09T03:39:11;10.60;99.90
58983;DHT22;44771;49.982;8.560;2023-10-09T03:44:13;10.60;99.90
58983;DHT22;44771;49.982;8.560;2023-10-09T03:49:15;10.70;99.90
58983;DHT22;44771;49.982;8.560;2023-10-09T03:54:19;10.70;99.90
58983;DHT22;44771;49.982;8.560;2023-10-09T03:59:21;10.80;99.90
58983;DHT22;44771;49.982;8.560;2023-10-09T04:04:23;10.70;99.90
58983;DHT22;44771;49.982;8.560;2023-10-09T04:09:26;10.80;99.90
58983;DHT22;44771;49.982;8.560;2023-10-09T04:14:28;10.80;99.90
58983;DHT22;44771;49.982;8.560;2023-10-09T04:19:30;10.70;99.90
58983;DHT22;44771;49.982;8.560;2023-10-09T04:24:33;10.70;99.90
58983;DHT22;44771;49.982;8.560;2023-10-09T04:29:36;10.80;99.90
58983;DHT22;44771;49.982;8.560;2023-10-09T04:34:37;10.80;99.90
58983;DHT22;44771;49.982;8.560;2023-10-09T04:39:41;10.80;99.90
58983;DHT22;44771;49.982;8.560;2023-10-09T04:44:43;10.90;99.90
58983;DHT22;44771;49.982;8.560;2023-10-09T04:49:45;11.00;99.90
58983;DHT22;44771;49.982;8.560;2023-10-09T04:54:51;11.10;99.90
58983;DHT22;44771;49.982;8.560;2023-10-09T04:59:56;11.30;99.90
58983;DHT22;44771;49.982;8.560;2023-10-09T05:04:58;11.40;99.90
58983;DHT22;44771;49.982;8.560;2023-10-09T05:10:01;11.50;99.90
58983;DHT22;44771;49.982;8.560;2023-10-09T05:15:04;11.60;99.90
58983;DHT22;44771;49.982;8.560;2023-10-09T05:20:07;11.80;99.90
58983;DHT22;44771;49.982;8.560;2023-10-09T05:25:10;11.90;99.90
58983;DHT22;44771;49.982;8.560;2023-10-09T05:30:12;12.00;99.90
58983;DHT22;44771;49.982;8.560;2023-10-09T05:35:14;12.20;99.90
58983;DHT22;44771;49.982;8.560;2023-10-09T05:40:17;12.40;99.90
58983;DHT22;44771;49.982;8.560;2023-10-09T05:45:19;12.50;99.90
58983;DHT22;44771;49.982;8.560;2023-10-09T05:50:21;12.50;99.90
58983;DHT22;44771;49.982;8.560;2023-10-09T05:55:26;12.60;99.90
58983;DHT22;44771;49.982;8.560;2023-10-09T06:00:28;12.70;99.90
58983;DHT22;44771;49.982;8.560;2023-10-09T06:05:32;12.80;99.90
58983;DHT22;44771;49.982;8.560;2023-10-09T06:10:35;12.80;99.90
58983;DHT22;44771;49.982;8.560;2023-10-09T06:15:37;12.80;99.90
58983;DHT22;44771;49.982;8.560;2023-10-09T06:20:39;12.90;99.90
58983;DHT22;44771;49.982;8.560;2023-10-09T06:25:44;12.90;99.90
58983;DHT22;44771;49.982;8.560;2023-10-09T06:30:46;13.00;99.90
58983;DHT22;44771;49.982;8.560;2023-10-09T06:35:47;13.00;99.90
58983;DHT22;44771;49.982;8.560;2023-10-09T06:40:51;13.10;99.90
58983;DHT22;44771;49.982;8.560;2023-10-09T06:45:54;13.20;99.90
58983;DHT22;44771;49.982;8.560;2023-10-09T06:50:56;13.20;99.90
58983;DHT22;44771;49.982;8.560;2023-10-09T06:56:00;13.30;99.90
58983;DHT22;44771;49.982;8.560;2023-10-09T07:01:03;13.30;99.90
58983;DHT22;44771;49.982;8.560;2023-10-09T07:06:05;13.50;99.90
58983;DHT22;44771;49.982;8.560;2023-10-09T07:11:10;13.50;99.90
58983;DHT22;44771;49.982;8.560;2023-10-09T07:16:12;13.60;99.90
58983;DHT22;44771;49.982;8.560;2023-10-09T07:21:20;13.60;99.90
58983;DHT22;44771;49.982;8.560;2023-10-09T07:26:23;13.70;99.90
58983;DHT22;44771;49.982;8.560;2023-10-09T07:31:25;13.80;99.90
58983;DHT22;44771;49.982;8.560;2023-10-09T07:36:27;13.90;99.90
58983;DHT22;44771;49.982;8.560;2023-10-09T07:41:34;14.00;99.90
58983;DHT22;44771;49.982;8.560;2023-10-09T07:46:36;14.10;99.90
58983;DHT22;44771;49.982;8.560;2023-10-09T07:51:40;14.10;99.90
58983;DHT22;44771;49.982;8.560;2023-10-09T07:56:49;14.20;99.90
58983;DHT22;44771;49.982;8.560;2023-10-09T08:01:51;14.20;99.90
58983;DHT22;44771;49.982;8.560;2023-10-09T08:06:53;14.40;99.90
58983;DHT22;44771;49.982;8.560;2023-10-09T08:12:16;14.60;99.90
58983;DHT22;44771;49.982;8.560;2023-10-09T08:17:18;14.70;99.90
58983;DHT22;44771;49.982;8.560;2023-10-09T08:22:21;14.80;99.90
58983;DHT22;44771;49.982;8.560;2023-10-09T08:27:25;14.90;99.90
58983;DHT22;44771;49.982;8.560;2023-10-09T08:32:27;15.00;99.90
58983;DHT22;44771;49.982;8.560;2023-10-09T08:37:35;15.00;99.90
58983;DHT22;44771;49.982;8.560;2023-10-09T08:42:38;15.00;99.90
58983;DHT22;44771;49.982;8.560;2023-10-09T08:47:40;14.90;99.90
58983;DHT22;44771;49.982;8.560;2023-10-09T08:52:42;14.90;99.90
58983;DHT22;44771;49.982;8.560;2023-10-09T08:57:46;15.00;99.90
58983;DHT22;44771;49.982;8.560;2023-10-09T09:02:49;15.10;99.90
58983;DHT22;44771;49.982;8.560;2023-10-09T09:07:51;15.10;99.90
58983;DHT22;44771;49.982;8.560;2023-10-09T09:12:54;15.20;99.90
58983;DHT22;44771;49.982;8.560;2023-10-09T09:18:03;15.20;99.90
58983;DHT22;44771;49.982;8.560;2023-10-09T09:23:09;15.30;99.90
58983;DHT22;44771;49.982;8.560;2023-10-09T09:28:14;15.30;99.90
58983;DHT22;44771;49.982;8.560;2023-10-09T09:33:20;15.30;99.90
58983;DHT22;44771;49.982;8.560;2023-10-09T09:38:22;15.40;99.90
58983;DHT22;44771;49.982;8.560;2023-10-09T09:43:26;15.50;99.90
58983;DHT22;44771;49.982;8.560;2023-10-09T09:48:29;15.50;99.90
58983;DHT22;44771;49.982;8.560;2023-10-09T09:53:32;15.60;99.90
58983;DHT22;44771;49.982;8.560;2023-10-09T09:58:36;15.70;99.90
58983;DHT22;44771;49.982;8.560;2023-10-09T10:03:41;15.90;99.90
58983;DHT22;44771;49.982;8.560;2023-10-09T10:08:44;16.00;99.90
58983;DHT22;44771;49.982;8.560;2023-10-09T10:13:56;16.20;99.90
58983;DHT22;44771;49.982;8.560;2023-10-09T10:18:59;16.20;99.90
58983;DHT22;44771;49.982;8.560;2023-10-09T10:24:01;16.20;99.90
58983;DHT22;44771;49.982;8.560;2023-10-09T10:29:18;16.30;99.90
58983;DHT22;44771;49.982;8.560;2023-10-09T10:34:19;16.40;99.90
58983;DHT22;44771;49.982;8.560;2023-10-09T10:39:21;16.60;99.90
58983;DHT22;44771;49.982;8.560;2023-10-09T10:44:30;16.70;99.90
58983;DHT22;44771;49.982;8.560;2023-10-09T10:49:34;17.00;99.90
58983;DHT22;44771;49.982;8.560;2023-10-09T10:54:38;17.30;99.90
58983;DHT22;44771;49.982;8.560;2023-10-09T10:59:43;17.50;99.90
58983;DHT22;44771;49.982;8.560;2023-10-09T11:04:46;17.70;99.90
58983;DHT22;44771;49.982;8.560;2023-10-09T11:09:50;17.80;99.90
58983;DHT22;44771;49.982;8.560;2023-10-09T11:14:55;18.00;99.90
58983;DHT22;44771;49.982;8.560;2023-10-09T11:19:57;18.30;99.90
58983;DHT22;44771;49.982;8.560;2023-10-09T11:24:58;18.60;99.90
58983;DHT22;44771;49.982;8.560;2023-10-09T11:30:03;19.10;99.90
58983;DHT22;44771;49.982;8.560;2023-10-09T11:35:13;19.70;99.90
58983;DHT22;44771;49.982;8.560;2023-10-09T11:40:28;20.10;99.90
58983;DHT22;44771;49.982;8.560;2023-10-09T11:45:31;20.50;99.90
58983;DHT22;44771;49.982;8.560;2023-10-09T11:50:40;20.60;99.90
58983;DHT22;44771;49.982;8.560;2023-10-09T11:55:43;20.60;99.90
58983;DHT22;44771;49.982;8.560;2023-10-09T12:00:46;20.50;99.90
58983;DHT22;44771;49.982;8.560;2023-10-09T12:05:48;20.30;99.90
58983;DHT22;44771;49.982;8.560;2023-10-09T12:10:50;20.30;99.90
58983;DHT22;44771;49.982;8.560;2023-10-09T12:15:53;20.40;99.90
58983;DHT22;44771;49.982;8.560;2023-10-09T12:20:55;20.40;99.90
58983;DHT22;44771;49.982;8.560;2023-10-09T12:25:57;20.50;99.20
58983;DHT22;44771;49.982;8.560;2023-10-09T12:31:00;20.40;98.90
58983;DHT22;44771;49.982;8.560;2023-10-09T12:36:02;20.40;99.70
58983;DHT22;44771;49.982;8.560;2023-10-09T12:41:05;20.40;98.70
58983;DHT22;44771;49.982;8.560;2023-10-09T12:46:08;20.40;98.70
58983;DHT22;44771;49.982;8.560;2023-10-09T12:51:10;20.40;98.60
58983;DHT22;44771;49.982;8.560;2023-10-09T12:56:12;20.40;98.80
58983;DHT22;44771;49.982;8.560;2023-10-09T13:01:18;20.40;98.70
58983;DHT22;44771;49.982;8.560;2023-10-09T13:06:20;20.40;97.70
58983;DHT22;44771;49.982;8.560;2023-10-09T13:11:22;20.40;97.80
58983;DHT22;44771;49.982;8.560;2023-10-09T13:16:25;20.50;97.50
58983;DHT22;44771;49.982;8.560;2023-10-09T13:21:28;20.50;97.80
58983;DHT22;44771;49.982;8.560;2023-10-09T13:26:30;20.50;97.10
58983;DHT22;44771;49.982;8.560;2023-10-09T13:31:37;20.60;96.50
58983;DHT22;44771;49.982;8.560;2023-10-09T13:36:39;20.60;95.80
58983;DHT22;44771;49.982;8.560;2023-10-09T13:41:42;20.60;96.40
58983;DHT22;44771;49.982;8.560;2023-10-09T13:46:45;20.60;96.60
58983;DHT22;44771;49.982;8.560;2023-10-09T13:51:47;20.60;97.00
58983;DHT22;44771;49.982;8.560;2023-10-09T13:56:48;20.60;96.30
58983;DHT22;44771;49.982;8.560;2023-10-09T14:01:52;20.60;96.40
58983;DHT22;44771;49.982;8.560;2023-10-09T14:06:54;20.60;96.90
58983;DHT22;44771;49.982;8.560;2023-10-09T14:11:56;20.60;97.00
58983;DHT22;44771;49.982;8.560;2023-10-09T14:16:59;20.50;97.00
58983;DHT22;44771;49.982;8.560;2023-10-09T14:22:01;20.50;97.60
58983;DHT22;44771;49.982;8.560;2023-10-09T14:27:03;20.40;96.60
58983;DHT22;44771;49.982;8.560;2023-10-09T14:32:06;20.40;96.60
58983;DHT22;44771;49.982;8.560;2023-10-09T14:37:08;20.30;97.00
58983;DHT22;44771;49.982;8.560;2023-10-09T14:42:10;20.30;96.30
58983;DHT22;44771;49.982;8.560;2023-10-09T14:47:13;20.20;96.60
58983;DHT22;44771;49.982;8.560;2023-10-09T14:52:15;20.20;96.80
58983;DHT22;44771;49.982;8.560;2023-10-09T14:57:17;20.10;97.60
58983;DHT22;44771;49.982;8.560;2023-10-09T15:02:21;20.10;97.00
58983;DHT22;44771;49.982;8.560;2023-10-09T15:07:22;20.00;98.10
58983;DHT22;44771;49.982;8.560;2023-10-09T15:12:40;19.90;99.40
58983;DHT22;44771;49.982;8.560;2023-10-09T15:17:43;19.70;99.90
58983;DHT22;44771;49.982;8.560;2023-10-09T15:22:45;19.60;99.90
58983;DHT22;44771;49.982;8.560;2023-10-09T15:27:47;19.50;99.90
58983;DHT22;44771;49.982;8.560;2023-10-09T15:32:50;19.40;99.90
58983;DHT22;44771;49.982;8.560;2023-10-09T15:37:51;19.40;99.90
58983;DHT22;44771;49.982;8.560;2023-10-09T15:42:53;19.40;99.90
58983;DHT22;44771;49.982;8.560;2023-10-09T15:47:56;19.30;99.90
58983;DHT22;44771;49.982;8.560;2023-10-09T15:52:59;19.20;99.90
58983;DHT22;44771;49.982;8.560;2023-10-09T15:58:00;19.10;99.90
58983;DHT22;44771;49.982;8.560;2023-10-09T16:03:04;19.00;99.90
58983;DHT22;44771;49.982;8.560;2023-10-09T16:08:06;18.80;99.90
58983;DHT22;44771;49.982;8.560;2023-10-09T16:13:08;18.60;99.90
58983;DHT22;44771;49.982;8.560;2023-10-09T16:18:11;18.50;99.90
58983;DHT22;44771;49.982;8.560;2023-10-09T16:23:13;18.20;99.90
58983;DHT22;44771;49.982;8.560;2023-10-09T16:28:15;18.10;99.90
58983;DHT22;44771;49.982;8.560;2023-10-09T16:33:19;18.00;99.90
58983;DHT22;44771;49.982;8.560;2023-10-09T16:38:21;17.90;99.90
58983;DHT22;44771;49.982;8.560;2023-10-09T16:43:23;17.80;99.90
58983;DHT22;44771;49.982;8.560;2023-10-09T16:48:26;17.70;99.90
58983;DHT22;44771;49.982;8.560;2023-10-09T16:53:28;17.50;99.90
58983;DHT22;44771;49.982;8.560;2023-10-09T16:58:30;17.30;99.90
58983;DHT22;44771;49.982;8.560;2023-10-09T17:03:33;17.30;99.90
58983;DHT22;44771;49.982;8.560;2023-10-09T17:08:36;17.20;99.90
58983;DHT22;44771;49.982;8.560;2023-10-09T17:13:38;17.00;99.90
58983;DHT22;44771;49.982;8.560;2023-10-09T17:18:42;17.00;99.90
58983;DHT22;44771;49.982;8.560;2023-10-09T17:23:44;16.80;99.90
58983;DHT22;44771;49.982;8.560;2023-10-09T17:28:46;16.60;99.90
58983;DHT22;44771;49.982;8.560;2023-10-09T17:33:49;16.60;99.90
58983;DHT22;44771;49.982;8.560;2023-10-09T17:38:51;16.50;99.90
58983;DHT22;44771;49.982;8.560;2023-10-09T17:43:53;16.40;99.90
58983;DHT22;44771;49.982;8.560;2023-10-09T17:48:56;16.40;99.90
58983;DHT22;44771;49.982;8.560;2023-10-09T17:53:58;16.50;99.90
58983;DHT22;44771;49.982;8.560;2023-10-09T17:58:59;16.50;99.90
58983;DHT22;44771;49.982;8.560;2023-10-09T18:04:03;16.30;99.90
58983;DHT22;44771;49.982;8.560;2023-10-09T18:09:05;16.20;99.90
58983;DHT22;44771;49.982;8.560;2023-10-09T18:14:10;16.00;99.90
58983;DHT22;44771;49.982;8.560;2023-10-09T18:19:13;15.90;99.90
58983;DHT22;44771;49.982;8.560;2023-10-09T18:24:15;15.70;99.90
58983;DHT22;44771;49.982;8.560;2023-10-09T18:29:17;15.60;99.90
58983;DHT22;44771;49.982;8.560;2023-10-09T18:34:22;15.60;99.90
58983;DHT22;44771;49.982;8.560;2023-10-09T18:39:23;15.50;99.90
58983;DHT22;44771;49.982;8.560;2023-10-09T18:44:25;15.60;99.90
58983;DHT22;44771;49.982;8.560;2023-10-09T18:49:28;15.60;99.90
58983;DHT22;44771;49.982;8.560;2023-10-09T18:54:30;15.60;99.90
58983;DHT22;44771;49.982;8.560;2023-10-09T18:59:32;15.50;99.90
58983;DHT22;44771;49.982;8.560;2023-10-09T19:04:35;15.60;99.90
58983;DHT22;44771;49.982;8.560;2023-10-09T19:09:37;15.50;99.90
58983;DHT22;44771;49.982;8.560;2023-10-09T19:14:38;15.40;99.90
58983;DHT22;44771;49.982;8.560;2023-10-09T19:19:42;15.40;99.90
58983;DHT22;44771;49.982;8.560;2023-10-09T19:24:43;15.30;99.90
58983;DHT22;44771;49.982;8.560;2023-10-09T19:29:45;15.10;99.90
58983;DHT22;44771;49.982;8.560;2023-10-09T19:34:50;15.30;99.90
58983;DHT22;44771;49.982;8.560;2023-10-09T19:39:51;15.10;99.90
58983;DHT22;44771;49.982;8.560;2023-10-09T19:44:53;15.10;99.90
58983;DHT22;44771;49.982;8.560;2023-10-09T19:49:56;15.00;99.90
58983;DHT22;44771;49.982;8.560;2023-10-09T19:54:58;15.10;99.90
58983;DHT22;44771;49.982;8.560;2023-10-09T20:00:00;15.10;99.90
58983;DHT22;44771;49.982;8.560;2023-10-09T20:05:04;15.20;99.90
58983;DHT22;44771;49.982;8.560;2023-10-09T20:10:06;15.10;99.90
58983;DHT22;44771;49.982;8.560;2023-10-09T20:15:09;14.90;99.90
58983;DHT22;44771;49.982;8.560;2023-10-09T20:20:12;14.70;99.90
58983;DHT22;44771;49.982;8.560;2023-10-09T20:25:14;14.60;99.90
58983;DHT22;44771;49.982;8.560;2023-10-09T20:30:16;14.40;99.90
58983;DHT22;44771;49.982;8.560;2023-10-09T20:35:19;14.30;99.90
58983;DHT22;44771;49.982;8.560;2023-10-09T20:40:22;14.00;99.90
58983;DHT22;44771;49.982;8.560;2023-10-09T20:45:24;14.10;99.90
58983;DHT22;44771;49.982;8.560;2023-10-09T20:50:27;13.80;99.90
58983;DHT22;44771;49.982;8.560;2023-10-09T20:55:29;13.90;99.90
58983;DHT22;44771;49.982;8.560;2023-10-09T21:00:31;13.80;99.90
58983;DHT22;44771;49.982;8.560;2023-10-09T21:05:34;13.70;99.90
58983;DHT22;44771;49.982;8.560;2023-10-09T21:10:36;13.60;99.90
58983;DHT22;44771;49.982;8.560;2023-10-09T21:15:38;13.60;99.90
58983;DHT22;44771;49.982;8.560;2023-10-09T21:20:41;13.40;99.90
58983;DHT22;44771;49.982;8.560;2023-10-09T21:25:43;13.40;99.90
58983;DHT22;44771;49.982;8.560;2023-10-09T21:30:44;13.20;99.90
58983;DHT22;44771;49.982;8.560;2023-10-09T21:35:48;13.20;99.90
58983;DHT22;44771;49.982;8.560;2023-10-09T21:40:49;13.10;99.90
58983;DHT22;44771;49.982;8.560;2023-10-09T21:45:51;13.10;99.90
58983;DHT22;44771;49.982;8.560;2023-10-09T21:50:54;13.10;99.90
58983;DHT22;44771;49.982;8.560;2023-10-09T21:56:02;12.90;99.90
58983;DHT22;44771;49.982;8.560;2023-10-09T22:01:04;12.90;99.90
58983;DHT22;44771;49.982;8.560;2023-10-09T22:06:11;12.80;99.90
58983;DHT22;44771;49.982;8.560;2023-10-09T22:11:12;12.80;99.90
58983;DHT22;44771;49.982;8.560;2023-10-09T22:16:14;12.70;99.90
58983;DHT22;44771;49.982;8.560;2023-10-09T22:21:18;12.60;99.90
58983;DHT22;44771;49.982;8.560;2023-10-09T22:26:19;12.50;99.90
58983;DHT22;44771;49.982;8.560;2023-10-09T22:31:21;12.40;99.90
58983;DHT22;44771;49.982;8.560;2023-10-09T22:36:25;12.30;99.90
58983;DHT22;44771;49.982;8.560;2023-10-09T22:41:47;12.40;99.90
58983;DHT22;44771;49.982;8.560;2023-10-09T22:46:49;12.20;99.90
58983;DHT22;44771;49.982;8.560;2023-10-09T22:51:52;12.10;99.90
58983;DHT22;44771;49.982;8.560;2023-10-09T22:56:54;12.00;99.90
58983;DHT22;44771;49.982;8.560;2023-10-09T23:01:55;12.00;99.90
58983;DHT22;44771;49.982;8.560;2023-10-09T23:06:59;11.90;99.90
58983;DHT22;44771;49.982;8.560;2023-10-09T23:12:01;11.80;99.90
58983;DHT22;44771;49.982;8.560;2023-10-09T23:17:02;11.80;99.90
58983;DHT22;44771;49.982;8.560;2023-10-09T23:22:07;11.90;99.90
58983;DHT22;44771;49.982;8.560;2023-10-09T23:27:08;11.80;99.90
58983;DHT22;44771;49.982;8.560;2023-10-09T23:32:10;11.70;99.90
58983;DHT22;44771;49.982;8.560;2023-10-09T23:37:13;11.60;99.90
58983;DHT22;44771;49.982;8.560;2023-10-09T23:42:15;11.60;99.90
58983;DHT22;44771;49.982;8.560;2023-10-09T23:47:17;11.60;99.90
58983;DHT22;44771;49.982;8.560;2023-10-09T23:52:20;11.60;99.90
58983;DHT22;44771;49.982;8.560;2023-10-09T23:57:22;11.60;99.90
